Time;durP1;ratioP1;P1;durP2;ratioP2;P2;SDS_P1;SDS_P2;PMS_P1;PMS_P2;Temp;Humidity;BMP_temperature;BMP_pressure;BME280_temperature;BME280_humidity;BME280_pressure;Samples;Min_cycle;Max_cycle;Signal;HPM_P1;HPM_P2
2022/11/20 00:01:35;;;;;;;15.55;8.93;;;;;;;;;;5026931;28;20411;-74
2022/11/20 00:04:02;;;;;;;15.90;8.70;;;;;;;;;;5027053;28;20415;-75
2022/11/20 00:06:30;;;;;;;17.30;8.43;;;;;;;;;;5027937;28;20053;-75
2022/11/20 00:08:58;;;;;;;14.73;8.25;;;;;;;;;;5030754;28;20045;-75
2022/11/20 00:11:28;;;;;;;17.70;9.27;;;;;;;;;;5031215;28;20055;-75
2022/11/20 00:13:56;;;;;;;19.88;10.02;;;;;;;;;;5035678;28;20049;-75
2022/11/20 00:16:25;;;;;;;19.35;9.73;;;;;;;;;;5033275;28;20053;-75
2022/11/20 00:18:52;;;;;;;16.85;9.35;;;;;;;;;;5035312;28;20044;-75
2022/11/20 00:21:20;;;;;;;15.63;9.05;;;;;;;;;;5032622;28;20407;-74
2022/11/20 00:23:50;;;;;;;14.65;8.60;;;;;;;;;;5034558;28;20052;-75
2022/11/20 00:26:18;;;;;;;21.85;9.15;;;;;;;;;;5033268;28;20423;-75
2022/11/20 00:28:50;;;;;;;13.63;8.35;;;;;;;;;;5036238;28;20049;-75
2022/11/20 00:31:18;;;;;;;14.05;7.82;;;;;;;;;;5026761;28;20065;-75
2022/11/20 00:33:45;;;;;;;16.15;8.65;;;;;;;;;;5034623;28;20415;-75
2022/11/20 00:36:14;;;;;;;15.07;8.32;;;;;;;;;;5034150;28;20057;-75
2022/11/20 00:38:41;;;;;;;13.10;8.38;;;;;;;;;;5031770;28;20060;-74
2022/11/20 00:41:11;;;;;;;13.98;8.40;;;;;;;;;;5031017;28;20474;-74
2022/11/20 00:43:38;;;;;;;14.65;8.50;;;;;;;;;;5047636;28;20400;-75
2022/11/20 00:46:08;;;;;;;15.60;8.57;;;;;;;;;;5029207;28;20097;-75
2022/11/20 00:48:35;;;;;;;16.08;8.95;;;;;;;;;;5029595;28;20045;-75
2022/11/20 00:51:02;;;;;;;16.63;8.60;;;;;;;;;;5032426;28;20045;-75
2022/11/20 00:53:30;;;;;;;14.98;8.00;;;;;;;;;;5030853;28;20057;-75
2022/11/20 00:55:57;;;;;;;14.80;8.50;;;;;;;;;;5030908;28;20048;-75
2022/11/20 00:58:27;;;;;;;15.32;8.98;;;;;;;;;;5023910;28;20069;-75
2022/11/20 01:00:54;;;;;;;19.98;9.82;;;;;;;;;;5032369;28;20049;-75
2022/11/20 01:03:22;;;;;;;16.65;9.25;;;;;;;;;;5030403;28;20064;-75
2022/11/20 01:05:50;;;;;;;15.93;8.25;;;;;;;;;;5028946;28;20148;-75
2022/11/20 01:08:17;;;;;;;17.02;8.80;;;;;;;;;;5030865;28;20045;-75
2022/11/20 01:10:44;;;;;;;16.00;8.85;;;;;;;;;;5031850;28;20091;-75
2022/11/20 01:16:12;;;;;;;23.70;11.15;;;;;;;;;;4962804;28;20154;-75
2022/11/20 01:18:42;;;;;;;19.45;8.65;;;;;;;;;;4981529;28;20510;-74
2022/11/20 01:21:10;;;;;;;17.75;8.38;;;;;;;;;;4989899;28;20512;-75
2022/11/20 01:23:38;;;;;;;15.25;8.25;;;;;;;;;;5027183;28;20544;-74
2022/11/20 01:26:07;;;;;;;14.10;8.23;;;;;;;;;;5026800;28;20045;-75
2022/11/20 01:28:34;;;;;;;15.70;8.52;;;;;;;;;;5026913;28;20408;-75
2022/11/20 01:31:02;;;;;;;17.40;8.40;;;;;;;;;;5022741;28;20049;-75
2022/11/20 01:33:29;;;;;;;14.48;8.38;;;;;;;;;;5029916;28;20048;-75
2022/11/20 01:36:06;;;;;;;14.57;8.20;;;;;;;;;;5030302;28;20400;-75
2022/11/20 01:38:33;;;;;;;16.52;8.02;;;;;;;;;;5027303;28;20052;-75
2022/11/20 01:41:00;;;;;;;16.90;8.23;;;;;;;;;;5029817;28;20045;-75
2022/11/20 01:43:28;;;;;;;16.20;8.45;;;;;;;;;;5028953;28;20056;-75
2022/11/20 01:46:00;;;;;;;16.85;8.95;;;;;;;;;;5030491;28;20052;-75
2022/11/20 01:48:31;;;;;;;16.00;8.85;;;;;;;;;;5030029;28;20057;-75
2022/11/20 01:50:58;;;;;;;16.23;9.30;;;;;;;;;;5027337;28;20049;-75
2022/11/20 01:53:32;;;;;;;18.13;9.13;;;;;;;;;;5027069;28;20087;-74
2022/11/20 01:55:59;;;;;;;;;;;;;;;;;;5028328;28;20049;-75
2022/11/20 01:58:29;;;;;;;15.88;8.52;;;;;;;;;;5023124;28;19925;-75
2022/11/20 02:00:56;;;;;;;15.25;8.60;;;;;;;;;;5029547;28;20187;-75
2022/11/20 02:03:23;;;;;;;17.67;9.27;;;;;;;;;;5029016;28;20075;-75
2022/11/20 02:05:53;;;;;;;14.93;8.18;;;;;;;;;;5026484;28;20045;-75
2022/11/20 02:08:20;;;;;;;14.65;8.27;;;;;;;;;;5029635;28;20049;-75
2022/11/20 02:10:49;;;;;;;15.20;8.25;;;;;;;;;;5031323;28;20702;-75
2022/11/20 02:16:02;;;;;;;17.23;8.90;;;;;;;;;;5026431;28;20125;-75
2022/11/20 02:18:30;;;;;;;15.00;8.82;;;;;;;;;;5030958;28;20569;-74
2022/11/20 02:20:59;;;;;;;15.15;8.02;;;;;;;;;;5028995;28;20044;-75
2022/11/20 02:23:29;;;;;;;15.13;8.85;;;;;;;;;;5030277;28;20045;-75
2022/11/20 02:25:59;;;;;;;13.43;8.38;;;;;;;;;;5029288;28;20052;-75
2022/11/20 02:28:27;;;;;;;13.32;7.32;;;;;;;;;;5026951;28;20471;-75
2022/11/20 02:30:54;;;;;;;12.48;7.55;;;;;;;;;;5030607;28;20049;-75
2022/11/20 02:33:21;;;;;;;13.68;8.40;;;;;;;;;;5030598;28;20057;-75
2022/11/20 02:35:48;;;;;;;14.88;8.13;;;;;;;;;;5029306;28;20063;-75
2022/11/20 02:38:16;;;;;;;12.43;7.95;;;;;;;;;;5028211;28;20049;-75
2022/11/20 02:40:43;;;;;;;12.30;6.95;;;;;;;;;;5023158;28;20053;-75
2022/11/20 02:43:12;;;;;;;14.60;8.02;;;;;;;;;;5027284;28;20615;-75
2022/11/20 02:45:39;;;;;;;13.77;7.80;;;;;;;;;;5028416;28;20045;-75
2022/11/20 02:48:08;;;;;;;15.93;7.60;;;;;;;;;;5015717;28;20041;-75
2022/11/20 02:50:38;;;;;;;13.85;8.00;;;;;;;;;;5024698;28;20576;-74
2022/11/20 02:53:05;;;;;;;13.40;7.80;;;;;;;;;;5024392;28;20075;-74
2022/11/20 02:55:32;;;;;;;13.27;7.55;;;;;;;;;;5030813;28;20048;-75
2022/11/20 02:58:00;;;;;;;14.50;8.20;;;;;;;;;;5025926;28;20056;-75
2022/11/20 03:00:28;;;;;;;17.30;8.00;;;;;;;;;;5028079;28;20049;-75
2022/11/20 03:02:55;;;;;;;14.60;8.45;;;;;;;;;;5030781;28;20641;-75
2022/11/20 03:05:23;;;;;;;14.57;7.75;;;;;;;;;;5030430;28;20060;-75
2022/11/20 03:07:50;;;;;;;17.15;8.45;;;;;;;;;;5032620;28;20533;-75
2022/11/20 03:10:17;;;;;;;15.98;8.07;;;;;;;;;;5030282;28;20049;-75
2022/11/20 03:12:45;;;;;;;14.70;8.02;;;;;;;;;;5026947;28;20048;-74
2022/11/20 03:15:12;;;;;;;12.73;7.50;;;;;;;;;;5028420;28;20048;-75
2022/11/20 03:17:41;;;;;;;13.68;7.15;;;;;;;;;;5032706;28;20668;-75
2022/11/20 03:20:09;;;;;;;14.10;8.02;;;;;;;;;;5044125;28;20064;-75
2022/11/20 03:22:36;;;;;;;13.88;8.32;;;;;;;;;;5030197;28;20561;-74
2022/11/20 03:25:03;;;;;;;15.60;8.48;;;;;;;;;;5033389;28;20067;-75
2022/11/20 03:27:33;;;;;;;15.73;8.55;;;;;;;;;;5031233;28;20044;-75
2022/11/20 03:30:00;;;;;;;16.80;9.00;;;;;;;;;;5025264;28;20045;-75
2022/11/20 03:32:27;;;;;;;13.88;8.10;;;;;;;;;;5028584;28;20056;-75
2022/11/20 03:34:56;;;;;;;14.93;8.38;;;;;;;;;;5026839;28;20881;-74
2022/11/20 03:37:23;;;;;;;13.90;7.95;;;;;;;;;;5022059;28;20086;-75
2022/11/20 03:39:51;;;;;;;14.85;8.20;;;;;;;;;;5026523;28;20092;-75
2022/11/20 03:45:03;;;;;;;13.85;7.97;;;;;;;;;;5033630;28;20041;-75
2022/11/20 03:47:30;;;;;;;15.65;8.65;;;;;;;;;;5030840;28;20061;-73
2022/11/20 03:49:58;;;;;;;14.18;7.63;;;;;;;;;;5028262;28;20456;-75
2022/11/20 03:52:26;;;;;;;14.50;8.10;;;;;;;;;;5031761;28;20061;-75
2022/11/20 03:54:53;;;;;;;13.98;7.75;;;;;;;;;;5031228;28;20048;-75
2022/11/20 03:57:20;;;;;;;16.13;7.93;;;;;;;;;;5028772;28;20059;-74
2022/11/20 03:59:47;;;;;;;15.75;7.45;;;;;;;;;;5026918;28;20494;-74
2022/11/20 04:02:15;;;;;;;14.98;8.18;;;;;;;;;;5032042;28;20399;-74
2022/11/20 04:04:42;;;;;;;15.73;7.63;;;;;;;;;;5028003;28;20107;-75
2022/11/20 04:07:11;;;;;;;13.52;6.60;;;;;;;;;;5030512;28;20060;-75
2022/11/20 04:09:38;;;;;;;11.25;7.10;;;;;;;;;;5030697;28;20057;-75
2022/11/20 04:12:05;;;;;;;14.88;7.93;;;;;;;;;;5033418;28;20053;-75
2022/11/20 04:14:32;;;;;;;12.95;7.60;;;;;;;;;;5032711;28;20045;-75
2022/11/20 04:17:00;;;;;;;12.65;7.95;;;;;;;;;;5028054;28;20049;-75
2022/11/20 04:19:27;;;;;;;13.88;7.45;;;;;;;;;;5027700;28;20037;-75
2022/11/20 04:21:54;;;;;;;14.05;7.78;;;;;;;;;;5029761;28;20057;-75
2022/11/20 04:24:23;;;;;;;14.93;8.50;;;;;;;;;;5030066;28;20060;-75
2022/11/20 04:26:50;;;;;;;14.45;8.05;;;;;;;;;;5029809;28;20055;-74
2022/11/20 04:29:17;;;;;;;13.95;7.97;;;;;;;;;;5026378;28;20058;-74
2022/11/20 04:31:44;;;;;;;12.52;7.47;;;;;;;;;;5032726;28;20049;-75
2022/11/20 04:34:13;;;;;;;12.18;7.28;;;;;;;;;;5022677;28;20052;-75
2022/11/20 04:36:40;;;;;;;15.85;8.32;;;;;;;;;;5034082;28;20092;-74
2022/11/20 04:39:08;;;;;;;13.88;7.70;;;;;;;;;;5025292;28;20045;-74
2022/11/20 04:41:37;;;;;;;14.10;8.60;;;;;;;;;;5023127;28;20045;-75
2022/11/20 04:44:06;;;;;;;14.00;8.27;;;;;;;;;;5032143;28;20061;-74
2022/11/20 04:46:34;;;;;;;12.40;7.43;;;;;;;;;;5024363;28;20056;-75
2022/11/20 04:49:02;;;;;;;13.20;7.80;;;;;;;;;;5048213;28;20049;-75
2022/11/20 04:51:29;;;;;;;17.17;8.32;;;;;;;;;;5029905;28;20443;-75
2022/11/20 04:53:57;;;;;;;14.98;8.05;;;;;;;;;;5029619;28;20049;-74
2022/11/20 04:56:24;;;;;;;13.50;7.28;;;;;;;;;;5029478;28;20094;-75
2022/11/20 04:58:53;;;;;;;17.00;8.20;;;;;;;;;;5030473;28;20048;-75
2022/11/20 05:01:21;;;;;;;15.73;8.10;;;;;;;;;;5027870;28;20055;-75
2022/11/20 05:03:49;;;;;;;12.98;7.10;;;;;;;;;;5029759;28;20049;-75
2022/11/20 05:06:19;;;;;;;13.82;7.47;;;;;;;;;;5026335;28;20060;-75
2022/11/20 05:08:47;;;;;;;12.48;7.47;;;;;;;;;;5030446;28;20047;-74
2022/11/20 05:11:15;;;;;;;15.00;8.15;;;;;;;;;;5027436;28;20136;-75
2022/11/20 05:13:42;;;;;;;12.85;7.80;;;;;;;;;;5030298;28;20044;-75
2022/11/20 05:16:12;;;;;;;14.75;7.63;;;;;;;;;;5036322;28;20064;-75
2022/11/20 05:18:39;;;;;;;17.80;7.82;;;;;;;;;;5046899;28;20743;-75
2022/11/20 05:21:07;;;;;;;15.52;7.45;;;;;;;;;;5029637;28;20514;-75
2022/11/20 05:23:35;;;;;;;14.77;7.60;;;;;;;;;;5034080;28;20393;-74
2022/11/20 05:26:02;;;;;;;15.27;7.80;;;;;;;;;;5031510;28;20535;-75
2022/11/20 05:28:31;;;;;;;14.52;7.80;;;;;;;;;;5030561;28;20068;-74
2022/11/20 05:31:05;;;;;;;16.10;7.50;;;;;;;;;;5031698;28;20740;-75
2022/11/20 05:33:33;;;;;;;13.40;7.90;;;;;;;;;;5032382;28;20041;-75
2022/11/20 05:36:01;;;;;;;15.40;7.70;;;;;;;;;;5029058;28;20064;-74
2022/11/20 05:38:28;;;;;;;12.75;7.70;;;;;;;;;;5032485;28;20396;-75
2022/11/20 05:40:55;;;;;;;13.43;7.78;;;;;;;;;;5028645;28;20048;-73
2022/11/20 05:43:22;;;;;;;14.07;7.50;;;;;;;;;;5034591;28;20084;-75
2022/11/20 05:45:53;;;;;;;14.05;7.50;;;;;;;;;;5028979;28;20064;-75
2022/11/20 05:48:20;;;;;;;12.30;7.50;;;;;;;;;;5031672;28;20053;-75
2022/11/20 05:50:49;;;;;;;14.75;8.10;;;;;;;;;;5029930;28;20118;-74
2022/11/20 05:53:17;;;;;;;14.95;8.05;;;;;;;;;;5029940;28;20062;-75
2022/11/20 05:55:44;;;;;;;13.88;7.40;;;;;;;;;;5024845;28;20041;-74
2022/11/20 05:58:11;;;;;;;14.90;7.18;;;;;;;;;;5033161;28;20049;-74
2022/11/20 06:00:38;;;;;;;13.18;8.02;;;;;;;;;;5031471;28;20055;-75
2022/11/20 06:03:06;;;;;;;14.73;7.97;;;;;;;;;;5034665;28;20059;-74
2022/11/20 06:05:34;;;;;;;13.88;8.00;;;;;;;;;;5032079;28;20061;-74
2022/11/20 06:08:03;;;;;;;14.65;8.00;;;;;;;;;;5029359;28;20060;-74
2022/11/20 06:10:30;;;;;;;15.57;8.00;;;;;;;;;;5027791;28;20676;-74
2022/11/20 06:12:59;;;;;;;14.50;8.40;;;;;;;;;;5029972;28;20492;-75
2022/11/20 06:15:26;;;;;;;15.27;7.63;;;;;;;;;;5029650;28;20063;-75
2022/11/20 06:17:53;;;;;;;12.98;7.78;;;;;;;;;;5028311;28;20226;-75
2022/11/20 06:20:21;;;;;;;15.60;8.32;;;;;;;;;;5022342;28;20057;-75
2022/11/20 06:22:48;;;;;;;12.88;6.97;;;;;;;;;;5029864;28;20056;-75
2022/11/20 06:25:17;;;;;;;14.00;7.88;;;;;;;;;;5026746;28;20075;-74
2022/11/20 06:27:44;;;;;;;14.43;8.27;;;;;;;;;;5029892;28;20687;-74
2022/11/20 06:30:12;;;;;;;14.07;7.63;;;;;;;;;;5044442;28;20052;-75
2022/11/20 06:32:39;;;;;;;15.95;7.88;;;;;;;;;;5027289;28;20471;-75
2022/11/20 06:35:07;;;;;;;14.93;8.02;;;;;;;;;;5035412;28;20049;-74
2022/11/20 06:37:34;;;;;;;14.20;7.57;;;;;;;;;;5025156;28;20045;-75
2022/11/20 06:40:01;;;;;;;13.20;7.47;;;;;;;;;;5027573;28;20544;-75
2022/11/20 06:42:30;;;;;;;14.35;7.65;;;;;;;;;;5038674;28;20068;-75
2022/11/20 06:44:57;;;;;;;12.00;7.30;;;;;;;;;;5031826;28;20056;-75
2022/11/20 06:47:24;;;;;;;16.73;7.65;;;;;;;;;;5030033;28;20128;-75
2022/11/20 06:49:51;;;;;;;13.27;8.23;;;;;;;;;;5029492;28;20149;-75
2022/11/20 06:52:19;;;;;;;16.27;9.07;;;;;;;;;;5031742;28;20053;-75
2022/11/20 06:54:46;;;;;;;17.50;9.35;;;;;;;;;;5025574;28;20151;-75
2022/11/20 06:57:13;;;;;;;11.82;7.15;;;;;;;;;;5027844;28;20040;-75
2022/11/20 06:59:42;;;;;;;14.32;8.07;;;;;;;;;;5029745;28;20049;-75
2022/11/20 07:02:11;;;;;;;13.60;7.85;;;;;;;;;;5025986;28;20057;-75
2022/11/20 07:04:38;;;;;;;13.82;8.07;;;;;;;;;;5028827;28;20049;-75
2022/11/20 07:07:06;;;;;;;17.77;8.43;;;;;;;;;;5028012;28;20053;-74
2022/11/20 07:09:33;;;;;;;14.35;8.68;;;;;;;;;;5030051;28;20458;-75
2022/11/20 07:12:00;;;;;;;14.85;8.60;;;;;;;;;;5029293;28;20074;-74
2022/11/20 07:14:28;;;;;;;13.18;8.07;;;;;;;;;;5029701;28;20482;-75
2022/11/20 07:16:56;;;;;;;12.98;8.35;;;;;;;;;;5029083;28;20084;-74
2022/11/20 07:19:23;;;;;;;16.23;8.00;;;;;;;;;;5024244;28;20048;-75
2022/11/20 07:21:51;;;;;;;13.13;7.47;;;;;;;;;;5027555;28;20051;-75
2022/11/20 07:24:18;;;;;;;13.75;7.78;;;;;;;;;;5030345;28;20164;-74
2022/11/20 07:26:48;;;;;;;14.05;8.10;;;;;;;;;;5027905;28;20067;-74
2022/11/20 07:29:18;;;;;;;13.13;7.95;;;;;;;;;;5028274;28;20049;-75
2022/11/20 07:31:46;;;;;;;15.60;7.70;;;;;;;;;;5027933;28;20080;-74
2022/11/20 07:34:14;;;;;;;13.60;7.60;;;;;;;;;;5021492;28;20057;-75
2022/11/20 07:36:41;;;;;;;13.13;7.10;;;;;;;;;;5023635;28;20055;-75
2022/11/20 07:39:09;;;;;;;10.75;6.50;;;;;;;;;;5026541;28;20056;-75
2022/11/20 07:41:36;;;;;;;10.65;6.63;;;;;;;;;;5027091;28;20127;-74
2022/11/20 07:44:03;;;;;;;10.75;6.78;;;;;;;;;;5027725;28;20056;-74
2022/11/20 07:46:30;;;;;;;15.55;7.55;;;;;;;;;;5027416;28;20435;-74
2022/11/20 07:48:58;;;;;;;15.25;7.05;;;;;;;;;;5028569;28;20057;-75
2022/11/20 07:51:27;;;;;;;11.73;6.88;;;;;;;;;;5027854;28;20056;-75
2022/11/20 07:53:54;;;;;;;12.43;7.32;;;;;;;;;;5027651;28;20076;-75
2022/11/20 07:56:21;;;;;;;13.27;7.18;;;;;;;;;;5028778;28;20150;-75
2022/11/20 07:58:49;;;;;;;11.77;7.40;;;;;;;;;;5028329;28;20051;-75
2022/11/20 08:01:16;;;;;;;13.15;7.07;;;;;;;;;;5027361;28;20064;-75
2022/11/20 08:03:43;;;;;;;11.10;7.00;;;;;;;;;;5028891;28;20136;-75
2022/11/20 08:06:10;;;;;;;16.48;8.50;;;;;;;;;;5029701;28;20056;-75
2022/11/20 08:08:40;;;;;;;15.30;7.90;;;;;;;;;;5026012;28;20418;-75
2022/11/20 08:16:33;;;;;;;14.02;7.60;;;;;;;;;;5027494;28;20048;-75
2022/11/20 08:19:00;;;;;;;12.75;7.45;;;;;;;;;;5028186;28;20114;-75
2022/11/20 08:21:28;;;;;;;14.50;7.72;;;;;;;;;;5027247;28;20045;-75
2022/11/20 08:23:56;;;;;;;13.15;7.13;;;;;;;;;;5026598;28;20061;-75
2022/11/20 08:26:24;;;;;;;12.27;6.68;;;;;;;;;;5025669;28;20053;-75
2022/11/20 08:28:55;;;;;;;11.85;6.78;;;;;;;;;;5026228;28;20073;-75
2022/11/20 08:31:22;;;;;;;13.07;6.72;;;;;;;;;;5028271;28;20080;-75
2022/11/20 08:33:49;;;;;;;11.65;7.40;;;;;;;;;;5027581;28;20072;-75
2022/11/20 08:36:17;;;;;;;10.45;6.60;;;;;;;;;;5027324;28;20049;-75
2022/11/20 08:38:48;;;;;;;12.68;6.68;;;;;;;;;;5040925;28;20388;-75
2022/11/20 08:41:26;;;;;;;14.70;7.32;;;;;;;;;;5027988;28;20145;-75
2022/11/20 08:43:55;;;;;;;14.60;7.32;;;;;;;;;;5021700;28;20057;-75
2022/11/20 08:46:22;;;;;;;13.02;7.40;;;;;;;;;;5023264;28;20049;-75
2022/11/20 08:48:50;;;;;;;10.75;7.00;;;;;;;;;;5027013;28;20057;-74
2022/11/20 08:51:17;;;;;;;11.88;6.82;;;;;;;;;;5025955;28;20045;-75
2022/11/20 08:53:44;;;;;;;11.15;6.93;;;;;;;;;;5027100;28;20057;-74
2022/11/20 08:56:12;;;;;;;12.32;6.95;;;;;;;;;;5026413;28;20053;-75
2022/11/20 08:58:41;;;;;;;10.13;6.47;;;;;;;;;;5026253;28;20137;-75
2022/11/20 09:01:08;;;;;;;14.40;8.00;;;;;;;;;;5025406;28;20737;-74
2022/11/20 09:03:35;;;;;;;12.77;6.97;;;;;;;;;;5027628;28;20136;-75
2022/11/20 09:06:03;;;;;;;14.50;8.23;;;;;;;;;;5025582;28;20057;-75
2022/11/20 09:08:31;;;;;;;12.95;7.28;;;;;;;;;;5026343;28;20053;-75
2022/11/20 09:10:59;;;;;;;12.27;7.55;;;;;;;;;;5027331;28;20041;-75
2022/11/20 09:13:27;;;;;;;13.27;8.10;;;;;;;;;;5026942;28;20053;-75
2022/11/20 09:15:56;;;;;;;23.73;11.73;;;;;;;;;;5024737;28;20462;-75
2022/11/20 09:18:23;;;;;;;19.55;10.93;;;;;;;;;;5026635;28;20504;-75
2022/11/20 09:20:51;;;;;;;18.77;10.85;;;;;;;;;;5025321;28;20060;-74
2022/11/20 09:23:18;;;;;;;16.92;9.77;;;;;;;;;;5027437;28;20060;-74
2022/11/20 09:25:46;;;;;;;16.45;9.48;;;;;;;;;;5027509;28;20061;-75
2022/11/20 09:28:13;;;;;;;17.00;10.27;;;;;;;;;;5025539;28;20050;-74
2022/11/20 09:30:40;;;;;;;19.15;10.55;;;;;;;;;;5026327;28;20042;-75
2022/11/20 09:33:09;;;;;;;17.90;10.32;;;;;;;;;;5023726;28;20062;-75
2022/11/20 09:35:36;;;;;;;16.15;10.02;;;;;;;;;;5027652;28;20064;-74
2022/11/20 09:38:07;;;;;;;18.80;9.68;;;;;;;;;;5019078;28;20142;-75
2022/11/20 09:40:36;;;;;;;16.20;9.50;;;;;;;;;;5025284;28;20046;-75
2022/11/20 09:43:05;;;;;;;17.33;9.82;;;;;;;;;;5025528;28;20057;-74
2022/11/20 09:45:39;;;;;;;15.00;9.48;;;;;;;;;;5025532;28;20182;-74
2022/11/20 09:48:16;;;;;;;14.13;8.68;;;;;;;;;;5025843;28;20079;-74
2022/11/20 09:50:47;;;;;;;14.68;9.13;;;;;;;;;;5025196;28;20106;-74
2022/11/20 09:53:17;;;;;;;15.98;9.63;;;;;;;;;;5026224;28;20053;-74
2022/11/20 09:55:46;;;;;;;14.52;9.57;;;;;;;;;;5025411;28;20067;-73
2022/11/20 09:58:17;;;;;;;17.70;10.00;;;;;;;;;;5026579;28;20065;-75
2022/11/20 10:00:45;;;;;;;16.02;9.68;;;;;;;;;;5025473;28;20362;-74
2022/11/20 10:03:16;;;;;;;16.70;10.10;;;;;;;;;;5027756;28;20432;-74
2022/11/20 10:05:46;;;;;;;14.18;9.38;;;;;;;;;;5024876;28;20112;-74
2022/11/20 10:08:16;;;;;;;16.05;9.23;;;;;;;;;;5022944;28;20053;-75
2022/11/20 10:10:45;;;;;;;15.70;9.20;;;;;;;;;;5024106;28;20042;-75
2022/11/20 10:13:22;;;;;;;14.93;8.73;;;;;;;;;;5041415;28;20048;-74
2022/11/20 10:15:56;;;;;;;14.90;9.70;;;;;;;;;;5024768;28;20053;-74
2022/11/20 10:18:32;;;;;;;15.25;9.30;;;;;;;;;;5025651;28;20061;-74
2022/11/20 10:21:05;;;;;;;15.57;9.40;;;;;;;;;;5025901;28;20045;-74
2022/11/20 10:23:41;;;;;;;13.48;8.60;;;;;;;;;;5023500;28;20109;-74
2022/11/20 10:26:18;;;;;;;16.55;10.25;;;;;;;;;;5029531;28;20140;-75
2022/11/20 10:28:50;;;;;;;15.13;9.10;;;;;;;;;;5027406;28;20045;-74
2022/11/20 10:31:26;;;;;;;17.73;10.55;;;;;;;;;;5028861;28;20135;-75
2022/11/20 10:33:56;;;;;;;15.30;8.98;;;;;;;;;;5029923;28;20056;-74
2022/11/20 10:36:26;;;;;;;15.93;10.07;;;;;;;;;;5030678;28;20545;-74
2022/11/20 10:38:56;;;;;;;14.93;9.30;;;;;;;;;;5026228;28;20057;-75
2022/11/20 10:41:25;;;;;;;13.50;8.65;;;;;;;;;;5030283;28;20059;-74
2022/11/20 10:43:55;;;;;;;14.25;9.18;;;;;;;;;;5026784;28;20049;-74
2022/11/20 10:46:24;;;;;;;14.95;8.98;;;;;;;;;;5028266;28;20081;-75
2022/11/20 10:48:51;;;;;;;14.32;8.48;;;;;;;;;;5019449;28;20457;-74
2022/11/20 10:51:27;;;;;;;15.85;10.07;;;;;;;;;;5026688;28;20045;-74
2022/11/20 10:54:00;;;;;;;16.15;9.90;;;;;;;;;;5027735;28;20064;-74
2022/11/20 10:56:32;;;;;;;15.57;9.27;;;;;;;;;;5029550;28;20049;-75
2022/11/20 10:59:04;;;;;;;13.43;8.63;;;;;;;;;;5029190;28;20053;-74
2022/11/20 11:01:31;;;;;;;14.27;8.23;;;;;;;;;;5029806;28;20057;-74
2022/11/20 11:04:00;;;;;;;13.43;8.93;;;;;;;;;;5027820;28;20503;-74
2022/11/20 11:06:33;;;;;;;14.43;8.48;;;;;;;;;;5029089;28;20437;-75
2022/11/20 11:09:00;;;;;;;;;;;;;;;;;;5030920;28;20041;-75
2022/11/20 11:11:29;;;;;;;13.52;8.35;;;;;;;;;;5029410;28;19921;-74
2022/11/20 11:14:06;;;;;;;14.70;9.13;;;;;;;;;;5029630;28;20053;-74
2022/11/20 11:16:33;;;;;;;14.32;8.55;;;;;;;;;;5026392;28;20056;-74
2022/11/20 11:19:07;;;;;;;14.13;8.15;;;;;;;;;;5028588;28;20182;-74
2022/11/20 11:21:41;;;;;;;16.05;7.57;;;;;;;;;;5027032;28;20051;-74
2022/11/20 11:24:17;;;;;;;13.25;7.75;;;;;;;;;;5025522;28;20116;-74
2022/11/20 11:26:52;;;;;;;10.93;7.10;;;;;;;;;;5023653;28;20152;-75
2022/11/20 11:29:19;;;;;;;9.88;6.25;;;;;;;;;;5023357;28;20057;-74
2022/11/20 11:31:47;;;;;;;10.73;6.15;;;;;;;;;;5021187;28;20141;-74
2022/11/20 11:34:15;;;;;;;9.43;6.13;;;;;;;;;;5019490;28;20050;-74
2022/11/20 11:36:51;;;;;;;9.27;5.50;;;;;;;;;;5022900;28;20051;-73
2022/11/20 11:39:20;;;;;;;9.05;5.60;;;;;;;;;;5021863;28;20115;-75
2022/11/20 11:41:48;;;;;;;6.95;4.80;;;;;;;;;;5031237;28;20053;-75
2022/11/20 11:47:03;;;;;;;7.25;4.28;;;;;;;;;;5035375;28;20156;-74
2022/11/20 11:49:30;;;;;;;7.55;4.13;;;;;;;;;;5027302;28;20104;-73
2022/11/20 11:52:03;;;;;;;7.53;4.07;;;;;;;;;;5030867;28;20049;-74
2022/11/20 11:54:34;;;;;;;7.07;4.40;;;;;;;;;;5022062;28;20053;-74
2022/11/20 11:57:02;;;;;;;6.82;4.00;;;;;;;;;;5020515;28;20056;-74
2022/11/20 11:59:33;;;;;;;6.10;3.80;;;;;;;;;;5018516;28;20054;-74
2022/11/20 12:02:03;;;;;;;9.18;3.95;;;;;;;;;;5026478;28;20052;-74
2022/11/20 12:04:39;;;;;;;5.53;3.42;;;;;;;;;;5025167;28;20068;-75
2022/11/20 12:07:12;;;;;;;5.25;3.40;;;;;;;;;;5025206;28;20488;-74
2022/11/20 12:09:44;;;;;;;5.10;3.25;;;;;;;;;;5028918;28;20641;-74
2022/11/20 12:12:13;;;;;;;8.80;3.90;;;;;;;;;;5021935;28;20048;-74
2022/11/20 12:14:41;;;;;;;6.18;3.45;;;;;;;;;;5027264;28;20488;-74
2022/11/20 12:17:12;;;;;;;5.90;3.78;;;;;;;;;;5023738;28;20050;-74
2022/11/20 12:19:39;;;;;;;5.25;3.20;;;;;;;;;;5027068;28;20064;-74
2022/11/20 12:22:15;;;;;;;6.47;2.90;;;;;;;;;;5028041;28;20046;-74
2022/11/20 12:24:46;;;;;;;6.57;3.35;;;;;;;;;;5027909;28;20069;-74
2022/11/20 12:27:27;;;;;;;5.10;3.00;;;;;;;;;;5031908;28;20076;-74
2022/11/20 12:29:58;;;;;;;5.55;3.00;;;;;;;;;;5047958;28;20045;-74
2022/11/20 12:32:39;;;;;;;8.15;4.18;;;;;;;;;;5024023;28;20455;-74
2022/11/20 12:35:11;;;;;;;6.28;3.47;;;;;;;;;;5028290;28;20053;-74
2022/11/20 12:37:44;;;;;;;6.53;3.47;;;;;;;;;;5030969;28;20052;-74
2022/11/20 12:40:25;;;;;;;8.82;3.65;;;;;;;;;;5029582;28;20049;-74
2022/11/20 12:45:52;;;;;;;6.72;3.88;;;;;;;;;;5021204;28;20053;-74
2022/11/20 12:48:27;;;;;;;6.07;3.45;;;;;;;;;;5030806;28;20060;-74
2022/11/20 12:51:01;;;;;;;6.90;3.95;;;;;;;;;;5029465;28;20056;-74
2022/11/20 12:53:33;;;;;;;6.63;3.40;;;;;;;;;;5029322;28;20056;-74
2022/11/20 12:56:05;;;;;;;6.97;3.72;;;;;;;;;;5026537;28;20131;-74
2022/11/20 12:58:36;;;;;;;7.10;3.85;;;;;;;;;;5029857;28;20131;-74
2022/11/20 13:01:39;;;;;;;6.65;3.60;;;;;;;;;;5030020;28;20056;-74
2022/11/20 13:04:00;;;;;;;6.72;3.88;;;;;;;;;;5028339;28;20048;-74
2022/11/20 13:06:27;;;;;;;5.28;3.25;;;;;;;;;;5030541;28;20048;-74
2022/11/20 13:08:56;;;;;;;5.40;3.67;;;;;;;;;;5030062;28;20807;-74
2022/11/20 13:11:27;;;;;;;5.60;3.90;;;;;;;;;;5045557;28;20045;-74
2022/11/20 13:14:04;;;;;;;7.43;3.90;;;;;;;;;;5030470;28;20052;-74
2022/11/20 13:16:34;;;;;;;7.32;4.07;;;;;;;;;;5047161;28;20148;-73
2022/11/20 13:19:03;;;;;;;6.88;3.88;;;;;;;;;;5031579;28;20106;-74
2022/11/20 13:21:37;;;;;;;6.47;3.80;;;;;;;;;;5029970;28;20424;-73
2022/11/20 13:24:22;;;;;;;6.90;4.00;;;;;;;;;;5032832;28;20583;-74
2022/11/20 13:26:50;;;;;;;11.52;5.50;;;;;;;;;;5027281;28;20819;-74
2022/11/20 13:29:18;;;;;;;17.45;8.07;;;;;;;;;;5024998;28;20582;-74
2022/11/20 13:31:46;;;;;;;12.18;6.20;;;;;;;;;;5030552;28;20048;-74
2022/11/20 13:34:15;;;;;;;10.02;4.80;;;;;;;;;;5047554;28;20414;-73
2022/11/20 13:36:50;;;;;;;7.85;4.78;;;;;;;;;;5029805;28;20068;-75
2022/11/20 13:39:27;;;;;;;9.77;5.05;;;;;;;;;;5022706;28;20064;-74
2022/11/20 13:41:56;;;;;;;6.60;4.35;;;;;;;;;;5030784;28;20052;-74
2022/11/20 13:44:26;;;;;;;9.95;5.35;;;;;;;;;;5031067;28;20053;-74
2022/11/20 13:46:53;;;;;;;8.20;5.00;;;;;;;;;;5029548;28;20053;-73
2022/11/20 13:49:31;;;;;;;9.27;5.65;;;;;;;;;;5029294;28;20136;-74
2022/11/20 13:52:03;;;;;;;7.70;4.63;;;;;;;;;;5024256;28;20068;-74
2022/11/20 13:54:54;;;;;;;8.35;4.72;;;;;;;;;;5029583;28;20056;-74
2022/11/20 13:57:36;;;;;;;7.93;5.25;;;;;;;;;;5027441;28;20045;-74
2022/11/20 14:00:10;;;;;;;7.78;4.60;;;;;;;;;;5025306;28;20107;-74
2022/11/20 14:02:37;;;;;;;;;;;;;;;;;;5046187;28;20052;-74
2022/11/20 14:05:05;;;;;;;8.85;5.35;;;;;;;;;;5031353;28;19987;-73
2022/11/20 14:07:34;;;;;;;7.22;4.50;;;;;;;;;;5047346;28;20045;-74
2022/11/20 14:10:02;;;;;;;7.50;4.60;;;;;;;;;;5028906;28;20451;-74
2022/11/20 14:12:31;;;;;;;9.48;5.28;;;;;;;;;;5027423;28;20056;-74
2022/11/20 14:14:58;;;;;;;7.32;4.97;;;;;;;;;;5041176;28;20056;-74
2022/11/20 14:17:31;;;;;;;14.85;5.38;;;;;;;;;;5029132;28;20569;-74
2022/11/20 14:20:00;;;;;;;7.88;4.72;;;;;;;;;;5030176;28;20136;-74
2022/11/20 14:22:28;;;;;;;7.97;5.05;;;;;;;;;;5027695;28;20049;-74
2022/11/20 14:25:05;;;;;;;8.80;6.38;;;;;;;;;;5028006;28;20045;-74
2022/11/20 14:27:35;;;;;;;10.27;5.43;;;;;;;;;;5026554;28;20092;-74
2022/11/20 14:30:02;;;;;;;8.55;5.10;;;;;;;;;;5029365;28;20056;-74
2022/11/20 14:32:31;;;;;;;8.77;5.00;;;;;;;;;;5026631;28;20045;-73
2022/11/20 14:35:01;;;;;;;9.20;5.32;;;;;;;;;;5029501;28;20694;-74
2022/11/20 14:37:29;;;;;;;10.27;4.82;;;;;;;;;;5028109;28;20164;-74
2022/11/20 14:39:58;;;;;;;11.40;5.05;;;;;;;;;;5033120;28;20055;-74
2022/11/20 14:42:28;;;;;;;8.55;5.20;;;;;;;;;;5046826;28;20068;-74
2022/11/20 14:44:56;;;;;;;8.65;4.80;;;;;;;;;;5028339;28;20056;-74
2022/11/20 14:47:25;;;;;;;10.50;5.07;;;;;;;;;;5028270;28;20053;-74
2022/11/20 14:49:54;;;;;;;9.45;5.72;;;;;;;;;;5033734;28;20124;-74
2022/11/20 14:52:22;;;;;;;9.30;5.40;;;;;;;;;;5026026;28;20053;-74
2022/11/20 14:54:49;;;;;;;7.30;4.55;;;;;;;;;;5027242;28;20053;-74
2022/11/20 14:57:24;;;;;;;7.70;5.28;;;;;;;;;;5028387;28;20443;-74
2022/11/20 15:00:04;;;;;;;8.38;4.90;;;;;;;;;;5027457;28;20060;-74
2022/11/20 15:02:32;;;;;;;8.60;4.97;;;;;;;;;;5024465;28;20053;-73
2022/11/20 15:05:01;;;;;;;10.98;5.60;;;;;;;;;;5030862;28;20049;-74